sensor_id;sensor_type;location;lat;lon;timestamp;pressure;altitude;pressure_sealevel;temperature;humidity
34925;BME280;21130;51.728;8.748;2023-03-26T00:01:14;99440.56;;;6.61;100.00
34925;BME280;21130;51.728;8.748;2023-03-26T00:03:42;99446.09;;;6.61;100.00
34925;BME280;21130;51.728;8.748;2023-03-26T00:06:12;99438.66;;;6.61;100.00
34925;BME280;21130;51.728;8.748;2023-03-26T00:08:41;99441.91;;;6.58;100.00
34925;BME280;21130;51.728;8.748;2023-03-26T00:11:10;99446.31;;;6.59;100.00
34925;BME280;21130;51.728;8.748;2023-03-26T00:13:37;99448.03;;;6.60;100.00
34925;BME280;21130;51.728;8.748;2023-03-26T00:16:05;99445.25;;;6.60;100.00
34925;BME280;21130;51.728;8.748;2023-03-26T00:18:31;99446.91;;;6.61;100.00
34925;BME280;21130;51.728;8.748;2023-03-26T00:21:02;99451.84;;;6.59;100.00
34925;BME280;21130;51.728;8.748;2023-03-26T00:23:29;99449.34;;;6.58;100.00
34925;BME280;21130;51.728;8.748;2023-03-26T00:25:56;99462.88;;;6.59;100.00
34925;BME280;21130;51.728;8.748;2023-03-26T00:28:23;99457.63;;;6.58;100.00
34925;BME280;21130;51.728;8.748;2023-03-26T00:30:56;99463.38;;;6.56;100.00
34925;BME280;21130;51.728;8.748;2023-03-26T00:33:23;99467.22;;;6.55;100.00
34925;BME280;21130;51.728;8.748;2023-03-26T00:35:51;99474.38;;;6.56;100.00
34925;BME280;21130;51.728;8.748;2023-03-26T00:38:19;99486.25;;;6.57;100.00
34925;BME280;21130;51.728;8.748;2023-03-26T00:40:46;99477.97;;;6.57;100.00
34925;BME280;21130;51.728;8.748;2023-03-26T00:43:15;99486.75;;;6.54;100.00
34925;BME280;21130;51.728;8.748;2023-03-26T00:45:44;99482.06;;;6.54;100.00
34925;BME280;21130;51.728;8.748;2023-03-26T00:48:11;99487.34;;;6.56;100.00
34925;BME280;21130;51.728;8.748;2023-03-26T00:50:38;99493.34;;;6.53;100.00
34925;BME280;21130;51.728;8.748;2023-03-26T00:53:05;99487.84;;;6.53;100.00
34925;BME280;21130;51.728;8.748;2023-03-26T00:55:34;99491.41;;;6.53;100.00
34925;BME280;21130;51.728;8.748;2023-03-26T00:58:01;99491.91;;;6.50;100.00
34925;BME280;21130;51.728;8.748;2023-03-26T01:00:29;99482.81;;;6.49;100.00
34925;BME280;21130;51.728;8.748;2023-03-26T01:03:00;99476.69;;;6.47;100.00
34925;BME280;21130;51.728;8.748;2023-03-26T01:05:47;99480.88;;;6.50;100.00
34925;BME280;21130;51.728;8.748;2023-03-26T01:08:22;99486.03;;;6.46;100.00
34925;BME280;21130;51.728;8.748;2023-03-26T01:10:52;99488.78;;;6.46;100.00
34925;BME280;21130;51.728;8.748;2023-03-26T01:13:28;99490.94;;;6.44;100.00
34925;BME280;21130;51.728;8.748;2023-03-26T01:15:58;99488.56;;;6.48;100.00
34925;BME280;21130;51.728;8.748;2023-03-26T01:18:28;99495.13;;;6.47;100.00
34925;BME280;21130;51.728;8.748;2023-03-26T01:20:59;99492.63;;;6.45;100.00
34925;BME280;21130;51.728;8.748;2023-03-26T01:23:36;99483.53;;;6.45;100.00
34925;BME280;21130;51.728;8.748;2023-03-26T01:26:10;99485.19;;;6.46;100.00
34925;BME280;21130;51.728;8.748;2023-03-26T01:28:39;99487.34;;;6.44;100.00
34925;BME280;21130;51.728;8.748;2023-03-26T01:31:10;99479.69;;;6.46;100.00
34925;BME280;21130;51.728;8.748;2023-03-26T01:33:46;99478.84;;;6.45;100.00
34925;BME280;21130;51.728;8.748;2023-03-26T01:36:21;99470.09;;;6.48;100.00
34925;BME280;21130;51.728;8.748;2023-03-26T01:38:56;99473.94;;;6.47;100.00
34925;BME280;21130;51.728;8.748;2023-03-26T01:41:29;99470.94;;;6.49;100.00
34925;BME280;21130;51.728;8.748;2023-03-26T01:44:02;99467.56;;;6.47;100.00
34925;BME280;21130;51.728;8.748;2023-03-26T01:46:32;99463.53;;;6.49;100.00
34925;BME280;21130;51.728;8.748;2023-03-26T01:49:01;99464.34;;;6.50;100.00
34925;BME280;21130;51.728;8.748;2023-03-26T01:51:31;99464.25;;;6.45;100.00
34925;BME280;21130;51.728;8.748;2023-03-26T01:53:58;99455.97;;;6.45;100.00
34925;BME280;21130;51.728;8.748;2023-03-26T01:56:30;99451.03;;;6.47;100.00
34925;BME280;21130;51.728;8.748;2023-03-26T01:59:18;99451.53;;;6.44;100.00
34925;BME280;21130;51.728;8.748;2023-03-26T02:01:56;99452.13;;;6.46;100.00
34925;BME280;21130;51.728;8.748;2023-03-26T02:04:32;99444.94;;;6.45;100.00
34925;BME280;21130;51.728;8.748;2023-03-26T02:07:02;99443.03;;;6.45;100.00
34925;BME280;21130;51.728;8.748;2023-03-26T02:09:36;99446.00;;;6.44;100.00
34925;BME280;21130;51.728;8.748;2023-03-26T02:12:12;99444.69;;;6.46;100.00
34925;BME280;21130;51.728;8.748;2023-03-26T02:14:40;99438.94;;;6.48;100.00
34925;BME280;21130;51.728;8.748;2023-03-26T02:17:10;99440.00;;;6.47;100.00
34925;BME280;21130;51.728;8.748;2023-03-26T02:19:37;99429.84;;;6.47;100.00
34925;BME280;21130;51.728;8.748;2023-03-26T02:24:35;99434.50;;;6.47;100.00
34925;BME280;21130;51.728;8.748;2023-03-26T02:27:02;99429.47;;;6.44;100.00
34925;BME280;21130;51.728;8.748;2023-03-26T02:29:33;99419.19;;;6.39;100.00
34925;BME280;21130;51.728;8.748;2023-03-26T02:32:03;99412.84;;;6.39;100.00
34925;BME280;21130;51.728;8.748;2023-03-26T02:34:30;99421.94;;;6.39;100.00
34925;BME280;21130;51.728;8.748;2023-03-26T02:36:56;99417.53;;;6.38;100.00
34925;BME280;21130;51.728;8.748;2023-03-26T02:39:23;99411.41;;;6.36;100.00
34925;BME280;21130;51.728;8.748;2023-03-26T02:41:50;99416.91;;;6.36;100.00
34925;BME280;21130;51.728;8.748;2023-03-26T02:44:17;99413.84;;;6.33;100.00
34925;BME280;21130;51.728;8.748;2023-03-26T02:46:44;99408.06;;;6.34;100.00
34925;BME280;21130;51.728;8.748;2023-03-26T02:49:11;99411.06;;;6.33;100.00
34925;BME280;21130;51.728;8.748;2023-03-26T02:51:37;99409.16;;;6.33;100.00
34925;BME280;21130;51.728;8.748;2023-03-26T02:54:04;99407.00;;;6.35;100.00
34925;BME280;21130;51.728;8.748;2023-03-26T02:56:32;99396.31;;;6.39;100.00
34925;BME280;21130;51.728;8.748;2023-03-26T02:58:58;99393.81;;;6.37;100.00
34925;BME280;21130;51.728;8.748;2023-03-26T03:01:25;99387.94;;;6.34;100.00
34925;BME280;21130;51.728;8.748;2023-03-26T03:03:56;99391.28;;;6.36;100.00
34925;BME280;21130;51.728;8.748;2023-03-26T03:06:22;99390.78;;;6.39;100.00
34925;BME280;21130;51.728;8.748;2023-03-26T03:08:50;99385.78;;;6.36;100.00
34925;BME280;21130;51.728;8.748;2023-03-26T03:11:18;99386.38;;;6.38;100.00
34925;BME280;21130;51.728;8.748;2023-03-26T03:13:48;99375.94;;;6.40;100.00
34925;BME280;21130;51.728;8.748;2023-03-26T03:16:15;99387.91;;;6.45;100.00
34925;BME280;21130;51.728;8.748;2023-03-26T03:18:41;99380.69;;;6.44;100.00
34925;BME280;21130;51.728;8.748;2023-03-26T03:21:09;99372.44;;;6.44;100.00
34925;BME280;21130;51.728;8.748;2023-03-26T03:23:36;99375.31;;;6.49;100.00
34925;BME280;21130;51.728;8.748;2023-03-26T03:26:02;99371.22;;;6.52;100.00
34925;BME280;21130;51.728;8.748;2023-03-26T03:28:30;99372.28;;;6.51;100.00
34925;BME280;21130;51.728;8.748;2023-03-26T03:30:57;99370.13;;;6.53;100.00
34925;BME280;21130;51.728;8.748;2023-03-26T03:33:23;99374.09;;;6.57;100.00
34925;BME280;21130;51.728;8.748;2023-03-26T03:35:50;99370.31;;;6.63;100.00
34925;BME280;21130;51.728;8.748;2023-03-26T03:38:18;99372.84;;;6.65;100.00
34925;BME280;21130;51.728;8.748;2023-03-26T03:40:44;99363.47;;;6.66;100.00
34925;BME280;21130;51.728;8.748;2023-03-26T03:43:11;99369.81;;;6.66;100.00
34925;BME280;21130;51.728;8.748;2023-03-26T03:45:37;99370.41;;;6.68;100.00
34925;BME280;21130;51.728;8.748;2023-03-26T03:48:04;99362.25;;;6.74;100.00
34925;BME280;21130;51.728;8.748;2023-03-26T03:50:31;99367.53;;;6.75;100.00
34925;BME280;21130;51.728;8.748;2023-03-26T03:52:57;99368.59;;;6.74;100.00
34925;BME280;21130;51.728;8.748;2023-03-26T03:55:26;99370.00;;;6.77;100.00
34925;BME280;21130;51.728;8.748;2023-03-26T03:57:54;99361.75;;;6.77;100.00
34925;BME280;21130;51.728;8.748;2023-03-26T04:00:24;99347.94;;;6.77;100.00
34925;BME280;21130;51.728;8.748;2023-03-26T04:02:50;99355.41;;;6.76;100.00
34925;BME280;21130;51.728;8.748;2023-03-26T04:05:18;99351.38;;;6.84;100.00
34925;BME280;21130;51.728;8.748;2023-03-26T04:07:45;99350.31;;;6.85;100.00
34925;BME280;21130;51.728;8.748;2023-03-26T04:10:13;99345.88;;;6.84;100.00
34925;BME280;21130;51.728;8.748;2023-03-26T04:12:41;99343.13;;;6.84;100.00
34925;BME280;21130;51.728;8.748;2023-03-26T04:15:08;99333.88;;;6.90;100.00
34925;BME280;21130;51.728;8.748;2023-03-26T04:17:35;99340.72;;;6.87;100.00
34925;BME280;21130;51.728;8.748;2023-03-26T04:20:07;99336.63;;;6.90;100.00
34925;BME280;21130;51.728;8.748;2023-03-26T04:35:00;99325.22;;;6.86;100.00
34925;BME280;21130;51.728;8.748;2023-03-26T04:37:30;99328.34;;;6.90;100.00
34925;BME280;21130;51.728;8.748;2023-03-26T04:39:58;99325.81;;;6.88;100.00
34925;BME280;21130;51.728;8.748;2023-03-26T04:42:26;99317.56;;;6.88;100.00
34925;BME280;21130;51.728;8.748;2023-03-26T04:44:53;99321.22;;;6.94;100.00
34925;BME280;21130;51.728;8.748;2023-03-26T04:47:19;99316.44;;;6.89;100.00
34925;BME280;21130;51.728;8.748;2023-03-26T04:49:46;99312.34;;;6.92;100.00
34925;BME280;21130;51.728;8.748;2023-03-26T04:52:14;99312.34;;;6.92;100.00
34925;BME280;21130;51.728;8.748;2023-03-26T04:54:42;99294.97;;;6.91;100.00
34925;BME280;21130;51.728;8.748;2023-03-26T04:57:14;99304.16;;;6.97;100.00
34925;BME280;21130;51.728;8.748;2023-03-26T04:59:42;99298.09;;;6.95;100.00
34925;BME280;21130;51.728;8.748;2023-03-26T05:02:11;99297.81;;;6.97;100.00
34925;BME280;21130;51.728;8.748;2023-03-26T05:04:38;99300.84;;;6.95;100.00
34925;BME280;21130;51.728;8.748;2023-03-26T05:07:05;99299.50;;;6.98;100.00
34925;BME280;21130;51.728;8.748;2023-03-26T05:09:35;99302.88;;;7.00;100.00
34925;BME280;21130;51.728;8.748;2023-03-26T05:12:01;99295.34;;;6.95;100.00
34925;BME280;21130;51.728;8.748;2023-03-26T05:14:28;99292.66;;;7.00;100.00
34925;BME280;21130;51.728;8.748;2023-03-26T05:16:55;99294.22;;;6.96;100.00
34925;BME280;21130;51.728;8.748;2023-03-26T05:19:21;99288.13;;;6.94;100.00
34925;BME280;21130;51.728;8.748;2023-03-26T05:21:48;99293.63;;;6.94;100.00
34925;BME280;21130;51.728;8.748;2023-03-26T05:24:14;99296.41;;;6.94;100.00
34925;BME280;21130;51.728;8.748;2023-03-26T05:26:42;99278.78;;;6.95;100.00
34925;BME280;21130;51.728;8.748;2023-03-26T05:29:09;99291.16;;;6.92;100.00
34925;BME280;21130;51.728;8.748;2023-03-26T05:31:35;99281.53;;;6.95;100.00
34925;BME280;21130;51.728;8.748;2023-03-26T05:34:02;99278.44;;;6.91;100.00
34925;BME280;21130;51.728;8.748;2023-03-26T05:36:29;99275.75;;;6.97;100.00
34925;BME280;21130;51.728;8.748;2023-03-26T05:38:56;99273.75;;;6.92;100.00
34925;BME280;21130;51.728;8.748;2023-03-26T05:41:22;99274.69;;;6.98;100.00
34925;BME280;21130;51.728;8.748;2023-03-26T05:43:50;99266.66;;;6.96;100.00
34925;BME280;21130;51.728;8.748;2023-03-26T05:46:16;99261.72;;;6.98;100.00
34925;BME280;21130;51.728;8.748;2023-03-26T05:48:44;99258.97;;;6.98;100.00
34925;BME280;21130;51.728;8.748;2023-03-26T05:51:10;99266.72;;;7.01;100.00
34925;BME280;21130;51.728;8.748;2023-03-26T05:53:40;99258.72;;;7.00;100.00
34925;BME280;21130;51.728;8.748;2023-03-26T05:56:07;99260.31;;;6.96;100.00
34925;BME280;21130;51.728;8.748;2023-03-26T05:58:34;99252.53;;;6.92;100.00
34925;BME280;21130;51.728;8.748;2023-03-26T06:01:03;99247.59;;;6.95;100.00
34925;BME280;21130;51.728;8.748;2023-03-26T06:03:34;99247.34;;;6.96;100.00
34925;BME280;21130;51.728;8.748;2023-03-26T06:06:01;99243.47;;;6.97;100.00
34925;BME280;21130;51.728;8.748;2023-03-26T06:08:28;99243.31;;;7.04;100.00
34925;BME280;21130;51.728;8.748;2023-03-26T06:10:58;99237.38;;;7.12;100.00
34925;BME280;21130;51.728;8.748;2023-03-26T06:13:26;99243.22;;;7.16;100.00
34925;BME280;21130;51.728;8.748;2023-03-26T06:15:52;99234.13;;;7.15;100.00
34925;BME280;21130;51.728;8.748;2023-03-26T06:18:20;99224.75;;;7.16;100.00
34925;BME280;21130;51.728;8.748;2023-03-26T06:20:47;99227.56;;;7.21;100.00
34925;BME280;21130;51.728;8.748;2023-03-26T06:23:13;99227.91;;;7.25;100.00
34925;BME280;21130;51.728;8.748;2023-03-26T06:25:40;99220.41;;;7.20;100.00
34925;BME280;21130;51.728;8.748;2023-03-26T06:28:08;99222.06;;;7.21;100.00
34925;BME280;21130;51.728;8.748;2023-03-26T06:30:35;99221.41;;;7.14;100.00
34925;BME280;21130;51.728;8.748;2023-03-26T06:33:01;99214.59;;;7.22;100.00
34925;BME280;21130;51.728;8.748;2023-03-26T06:35:29;99222.19;;;7.31;100.00
34925;BME280;21130;51.728;8.748;2023-03-26T06:37:55;99219.38;;;7.26;100.00
34925;BME280;21130;51.728;8.748;2023-03-26T06:40:23;99222.94;;;7.27;100.00
34925;BME280;21130;51.728;8.748;2023-03-26T06:42:50;99216.38;;;7.28;100.00
34925;BME280;21130;51.728;8.748;2023-03-26T06:45:16;99229.72;;;7.36;100.00
34925;BME280;21130;51.728;8.748;2023-03-26T06:47:43;99217.84;;;7.35;100.00
34925;BME280;21130;51.728;8.748;2023-03-26T06:50:10;99215.31;;;7.34;100.00
34925;BME280;21130;51.728;8.748;2023-03-26T06:52:38;99213.09;;;7.31;100.00
34925;BME280;21130;51.728;8.748;2023-03-26T06:55:05;99219.19;;;7.33;100.00
34925;BME280;21130;51.728;8.748;2023-03-26T06:57:34;99211.34;;;7.25;100.00
34925;BME280;21130;51.728;8.748;2023-03-26T07:00:01;99216.78;;;7.20;100.00
34925;BME280;21130;51.728;8.748;2023-03-26T07:02:28;99213.03;;;7.26;100.00
34925;BME280;21130;51.728;8.748;2023-03-26T07:04:55;99209.34;;;7.20;100.00
34925;BME280;21130;51.728;8.748;2023-03-26T07:07:21;99205.25;;;7.23;100.00
34925;BME280;21130;51.728;8.748;2023-03-26T07:09:50;99202.97;;;7.20;100.00
34925;BME280;21130;51.728;8.748;2023-03-26T07:12:16;99209.09;;;7.22;100.00
34925;BME280;21130;51.728;8.748;2023-03-26T07:14:43;99193.13;;;7.24;100.00
34925;BME280;21130;51.728;8.748;2023-03-26T07:17:09;99190.41;;;7.29;100.00
34925;BME280;21130;51.728;8.748;2023-03-26T07:19:36;99193.75;;;7.31;100.00
34925;BME280;21130;51.728;8.748;2023-03-26T07:22:03;99187.47;;;7.35;100.00
34925;BME280;21130;51.728;8.748;2023-03-26T07:24:30;99187.22;;;7.37;100.00
34925;BME280;21130;51.728;8.748;2023-03-26T07:27:02;99191.91;;;7.36;100.00
34925;BME280;21130;51.728;8.748;2023-03-26T07:29:34;99177.84;;;7.38;100.00
34925;BME280;21130;51.728;8.748;2023-03-26T07:32:10;99181.00;;;7.47;100.00
34925;BME280;21130;51.728;8.748;2023-03-26T07:34:47;99181.56;;;7.49;100.00
34925;BME280;21130;51.728;8.748;2023-03-26T07:37:25;99181.97;;;7.57;100.00
34925;BME280;21130;51.728;8.748;2023-03-26T07:39:58;99172.38;;;7.65;100.00
34925;BME280;21130;51.728;8.748;2023-03-26T07:42:40;99175.16;;;7.65;100.00
34925;BME280;21130;51.728;8.748;2023-03-26T07:45:18;99171.34;;;7.71;100.00
34925;BME280;21130;51.728;8.748;2023-03-26T07:47:47;99171.16;;;7.78;100.00
34925;BME280;21130;51.728;8.748;2023-03-26T07:50:19;99166.88;;;7.92;100.00
34925;BME280;21130;51.728;8.748;2023-03-26T07:52:46;99170.84;;;8.01;100.00
34925;BME280;21130;51.728;8.748;2023-03-26T07:55:15;99163.75;;;8.11;100.00
34925;BME280;21130;51.728;8.748;2023-03-26T07:57:50;99159.31;;;8.10;100.00
34925;BME280;21130;51.728;8.748;2023-03-26T08:00:23;99161.03;;;8.16;100.00
34925;BME280;21130;51.728;8.748;2023-03-26T08:03:12;99156.97;;;8.23;100.00
34925;BME280;21130;51.728;8.748;2023-03-26T08:05:48;99146.38;;;8.48;100.00
34925;BME280;21130;51.728;8.748;2023-03-26T08:08:18;99154.78;;;8.58;100.00
34925;BME280;21130;51.728;8.748;2023-03-26T08:10:59;99143.81;;;8.68;100.00
34925;BME280;21130;51.728;8.748;2023-03-26T08:13:38;99140.06;;;8.90;100.00
34925;BME280;21130;51.728;8.748;2023-03-26T08:16:11;99136.28;;;9.06;100.00
34925;BME280;21130;51.728;8.748;2023-03-26T08:18:44;99142.16;;;9.20;100.00
34925;BME280;21130;51.728;8.748;2023-03-26T08:21:16;99128.13;;;9.42;100.00
34925;BME280;21130;51.728;8.748;2023-03-26T08:23:51;99134.84;;;9.61;100.00
34925;BME280;21130;51.728;8.748;2023-03-26T08:26:29;99126.84;;;9.80;100.00
34925;BME280;21130;51.728;8.748;2023-03-26T08:29:05;99133.25;;;9.81;100.00
34925;BME280;21130;51.728;8.748;2023-03-26T08:31:36;99126.03;;;9.90;100.00
34925;BME280;21130;51.728;8.748;2023-03-26T08:34:04;99123.03;;;9.97;100.00
34925;BME280;21130;51.728;8.748;2023-03-26T08:36:31;99117.22;;;10.03;100.00
34925;BME280;21130;51.728;8.748;2023-03-26T08:38:57;99121.38;;;10.01;100.00
34925;BME280;21130;51.728;8.748;2023-03-26T08:48:14;99115.41;;;9.46;100.00
34925;BME280;21130;51.728;8.748;2023-03-26T08:54:19;99106.84;;;9.52;100.00
34925;BME280;21130;51.728;8.748;2023-03-26T08:56:57;99110.38;;;9.38;100.00
34925;BME280;21130;51.728;8.748;2023-03-26T09:00:09;99103.22;;;9.42;100.00
34925;BME280;21130;51.728;8.748;2023-03-26T09:12:27;99090.53;;;9.56;100.00
34925;BME280;21130;51.728;8.748;2023-03-26T09:15:37;99083.00;;;9.41;100.00
34925;BME280;21130;51.728;8.748;2023-03-26T09:18:41;99075.25;;;9.38;100.00
34925;BME280;21130;51.728;8.748;2023-03-26T09:25:05;99079.41;;;9.46;100.00
34925;BME280;21130;51.728;8.748;2023-03-26T09:27:50;99076.09;;;9.44;100.00
34925;BME280;21130;51.728;8.748;2023-03-26T09:33:30;99072.38;;;9.18;100.00
34925;BME280;21130;51.728;8.748;2023-03-26T09:36:20;99073.75;;;9.15;100.00
34925;BME280;21130;51.728;8.748;2023-03-26T09:38:56;99066.31;;;9.21;100.00
34925;BME280;21130;51.728;8.748;2023-03-26T09:41:40;99066.63;;;9.35;100.00
34925;BME280;21130;51.728;8.748;2023-03-26T09:44:25;99066.38;;;9.41;100.00
34925;BME280;21130;51.728;8.748;2023-03-26T09:47:14;99065.28;;;9.47;100.00
34925;BME280;21130;51.728;8.748;2023-03-26T09:49:50;99062.25;;;9.49;100.00
34925;BME280;21130;51.728;8.748;2023-03-26T09:52:46;99065.03;;;9.54;100.00
34925;BME280;21130;51.728;8.748;2023-03-26T09:55:39;99066.38;;;9.41;100.00
34925;BME280;21130;51.728;8.748;2023-03-26T09:58:43;99068.59;;;9.44;100.00
34925;BME280;21130;51.728;8.748;2023-03-26T10:01:21;99070.78;;;9.32;100.00
34925;BME280;21130;51.728;8.748;2023-03-26T10:03:59;99065.91;;;8.86;100.00
34925;BME280;21130;51.728;8.748;2023-03-26T10:06:36;99074.03;;;8.56;100.00
34925;BME280;21130;51.728;8.748;2023-03-26T10:09:24;99073.19;;;8.55;100.00
34925;BME280;21130;51.728;8.748;2023-03-26T10:12:07;99070.09;;;8.47;100.00
34925;BME280;21130;51.728;8.748;2023-03-26T10:14:41;99068.44;;;8.46;100.00
34925;BME280;21130;51.728;8.748;2023-03-26T10:17:22;99080.00;;;8.42;100.00
34925;BME280;21130;51.728;8.748;2023-03-26T10:20:02;99072.56;;;8.43;100.00
34925;BME280;21130;51.728;8.748;2023-03-26T10:22:43;99071.59;;;8.32;100.00
34925;BME280;21130;51.728;8.748;2023-03-26T10:25:27;99075.41;;;8.21;100.00
34925;BME280;21130;51.728;8.748;2023-03-26T10:28:06;99076.63;;;8.35;100.00
34925;BME280;21130;51.728;8.748;2023-03-26T10:30:57;99069.22;;;8.41;100.00
34925;BME280;21130;51.728;8.748;2023-03-26T10:33:36;99071.16;;;8.40;100.00
34925;BME280;21130;51.728;8.748;2023-03-26T10:36:26;99070.06;;;8.41;100.00
34925;BME280;21130;51.728;8.748;2023-03-26T10:39:14;99068.03;;;8.37;100.00
34925;BME280;21130;51.728;8.748;2023-03-26T10:41:52;99066.47;;;8.41;100.00
34925;BME280;21130;51.728;8.748;2023-03-26T10:44:32;99067.84;;;8.43;100.00
34925;BME280;21130;51.728;8.748;2023-03-26T10:47:12;99060.66;;;8.42;100.00
34925;BME280;21130;51.728;8.748;2023-03-26T10:49:53;99063.69;;;8.41;100.00
34925;BME280;21130;51.728;8.748;2023-03-26T10:52:30;99063.97;;;8.44;100.00
34925;BME280;21130;51.728;8.748;2023-03-26T10:55:09;99062.94;;;8.51;100.00
34925;BME280;21130;51.728;8.748;2023-03-26T10:57:43;99067.78;;;8.38;100.00
34925;BME280;21130;51.728;8.748;2023-03-26T11:00:17;99066.72;;;8.39;100.00
34925;BME280;21130;51.728;8.748;2023-03-26T11:03:07;99068.03;;;8.37;100.00
34925;BME280;21130;51.728;8.748;2023-03-26T11:05:48;99064.41;;;8.31;100.00
34925;BME280;21130;51.728;8.748;2023-03-26T11:08:22;99062.44;;;8.27;100.00
34925;BME280;21130;51.728;8.748;2023-03-26T11:10:55;99062.13;;;8.18;100.00
34925;BME280;21130;51.728;8.748;2023-03-26T11:13:30;99069.84;;;8.16;100.00
34925;BME280;21130;51.728;8.748;2023-03-26T11:16:02;99072.25;;;8.07;100.00
34925;BME280;21130;51.728;8.748;2023-03-26T11:18:35;99080.22;;;8.04;100.00
34925;BME280;21130;51.728;8.748;2023-03-26T11:21:10;99070.28;;;7.70;100.00
34925;BME280;21130;51.728;8.748;2023-03-26T11:23:50;99074.84;;;7.60;100.00
34925;BME280;21130;51.728;8.748;2023-03-26T11:26:27;99070.38;;;7.53;100.00
34925;BME280;21130;51.728;8.748;2023-03-26T11:29:12;99070.78;;;7.40;100.00
34925;BME280;21130;51.728;8.748;2023-03-26T11:31:50;99065.81;;;7.42;100.00
34925;BME280;21130;51.728;8.748;2023-03-26T11:34:37;99069.50;;;7.48;100.00
34925;BME280;21130;51.728;8.748;2023-03-26T11:37:14;99065.56;;;7.44;100.00
34925;BME280;21130;51.728;8.748;2023-03-26T11:39:46;99069.25;;;7.54;100.00
34925;BME280;21130;51.728;8.748;2023-03-26T11:42:15;99066.50;;;7.54;100.00
34925;BME280;21130;51.728;8.748;2023-03-26T11:44:47;99071.00;;;7.61;100.00
34925;BME280;21130;51.728;8.748;2023-03-26T11:47:20;99075.16;;;7.63;100.00
34925;BME280;21130;51.728;8.748;2023-03-26T11:49:51;99064.41;;;7.67;100.00
34925;BME280;21130;51.728;8.748;2023-03-26T11:52:21;99066.66;;;7.70;100.00
34925;BME280;21130;51.728;8.748;2023-03-26T11:54:48;99072.06;;;7.60;100.00
34925;BME280;21130;51.728;8.748;2023-03-26T11:57:18;99068.50;;;7.59;100.00
34925;BME280;21130;51.728;8.748;2023-03-26T11:59:50;99064.69;;;7.65;100.00
34925;BME280;21130;51.728;8.748;2023-03-26T12:02:23;99061.72;;;7.72;100.00
34925;BME280;21130;51.728;8.748;2023-03-26T12:04:51;99060.16;;;7.81;100.00
34925;BME280;21130;51.728;8.748;2023-03-26T12:07:22;99064.59;;;7.87;100.00
34925;BME280;21130;51.728;8.748;2023-03-26T12:09:57;99057.44;;;7.86;100.00
34925;BME280;21130;51.728;8.748;2023-03-26T12:12:26;99047.84;;;7.67;100.00
34925;BME280;21130;51.728;8.748;2023-03-26T12:14:53;99055.84;;;7.63;100.00
34925;BME280;21130;51.728;8.748;2023-03-26T12:17:26;99062.28;;;7.74;100.00
34925;BME280;21130;51.728;8.748;2023-03-26T12:19:55;99059.00;;;7.77;100.00
34925;BME280;21130;51.728;8.748;2023-03-26T12:22:32;99053.31;;;7.89;100.00
34925;BME280;21130;51.728;8.748;2023-03-26T12:25:02;99049.94;;;7.82;100.00
34925;BME280;21130;51.728;8.748;2023-03-26T12:27:29;99044.75;;;7.58;100.00
34925;BME280;21130;51.728;8.748;2023-03-26T12:29:58;99042.19;;;7.51;100.00
34925;BME280;21130;51.728;8.748;2023-03-26T12:32:38;99037.63;;;7.67;100.00
34925;BME280;21130;51.728;8.748;2023-03-26T12:35:13;99037.53;;;7.57;100.00
34925;BME280;21130;51.728;8.748;2023-03-26T12:37:45;99033.38;;;7.54;100.00
34925;BME280;21130;51.728;8.748;2023-03-26T12:40:27;99041.75;;;7.65;100.00
34925;BME280;21130;51.728;8.748;2023-03-26T12:42:55;99042.03;;;7.63;100.00
34925;BME280;21130;51.728;8.748;2023-03-26T12:45:28;99031.81;;;7.64;100.00
34925;BME280;21130;51.728;8.748;2023-03-26T12:47:56;99031.25;;;7.62;100.00
34925;BME280;21130;51.728;8.748;2023-03-26T12:50:28;99031.00;;;7.63;100.00
34925;BME280;21130;51.728;8.748;2023-03-26T12:53:11;99035.06;;;7.55;100.00
34925;BME280;21130;51.728;8.748;2023-03-26T12:55:51;99028.19;;;7.58;100.00
34925;BME280;21130;51.728;8.748;2023-03-26T12:58:35;99030.38;;;7.56;100.00
34925;BME280;21130;51.728;8.748;2023-03-26T13:01:13;99026.19;;;7.53;100.00
34925;BME280;21130;51.728;8.748;2023-03-26T13:03:58;99015.69;;;7.50;100.00
34925;BME280;21130;51.728;8.748;2023-03-26T13:06:38;99019.03;;;7.52;100.00
34925;BME280;21130;51.728;8.748;2023-03-26T13:09:23;99011.81;;;7.51;100.00
34925;BME280;21130;51.728;8.748;2023-03-26T13:12:06;99015.97;;;7.54;100.00
34925;BME280;21130;51.728;8.748;2023-03-26T13:16:15;99008.47;;;7.49;100.00
34925;BME280;21130;51.728;8.748;2023-03-26T13:18:49;99017.91;;;7.53;100.00
34925;BME280;21130;51.728;8.748;2023-03-26T13:21:24;99016.31;;;7.57;100.00
34925;BME280;21130;51.728;8.748;2023-03-26T13:23:59;99018.59;;;7.66;100.00
34925;BME280;21130;51.728;8.748;2023-03-26T13:26:39;99010.88;;;7.68;100.00
34925;BME280;21130;51.728;8.748;2023-03-26T13:29:18;99012.63;;;7.79;100.00
34925;BME280;21130;51.728;8.748;2023-03-26T13:31:52;99006.31;;;7.84;100.00
34925;BME280;21130;51.728;8.748;2023-03-26T13:34:25;99000.53;;;7.85;100.00
34925;BME280;21130;51.728;8.748;2023-03-26T13:37:02;99004.09;;;7.81;100.00
34925;BME280;21130;51.728;8.748;2023-03-26T13:39:35;98998.03;;;7.84;100.00
34925;BME280;21130;51.728;8.748;2023-03-26T13:42:20;98994.06;;;7.74;100.00
34925;BME280;21130;51.728;8.748;2023-03-26T13:44:58;99001.00;;;7.77;100.00
34925;BME280;21130;51.728;8.748;2023-03-26T13:47:30;99001.00;;;7.77;100.00
34925;BME280;21130;51.728;8.748;2023-03-26T13:50:00;98997.97;;;7.78;100.00
34925;BME280;21130;51.728;8.748;2023-03-26T13:52:33;98994.44;;;7.83;100.00
34925;BME280;21130;51.728;8.748;2023-03-26T13:55:18;98994.66;;;7.76;100.00
34925;BME280;21130;51.728;8.748;2023-03-26T13:57:49;98994.41;;;7.78;100.00
34925;BME280;21130;51.728;8.748;2023-03-26T14:00:22;98990.53;;;7.79;100.00
34925;BME280;21130;51.728;8.748;2023-03-26T14:02:56;98994.31;;;7.68;100.00
34925;BME280;21130;51.728;8.748;2023-03-26T14:05:28;98994.72;;;7.54;100.00
34925;BME280;21130;51.728;8.748;2023-03-26T14:07:59;98985.72;;;7.37;100.00
34925;BME280;21130;51.728;8.748;2023-03-26T14:10:31;98991.94;;;7.22;100.00